Ashville, NY (14710)

11:15 AM EST on January 31, 2015 (GMT -0500)
Cheney Subdivision near Greenhurst | Change Station
CLOSE
Current Station
Personal Weather Station
Location: Bemus Point, NY
Elevation: 1329 ft
Nearby Weather Stations
Active Advisory: Winter Storm Watch Active Notice: Public Information Statement

Elev 1329 ft 42.12 °N, 79.33 °W | Updated 32 seconds ago

Overcast
Overcast
15.6 °F
Feels Like 16 °F
N
1.7
Wind Variable Wind from SW

Today
High -- | Low -- °F
--% Chance of Precip.
Yesterday
High -- | Low -- °F
Precip. -- in
7:31 AM 5:30 PM
Waxing Gibbous, 90% visible
Pressure 30.22 in
Visibility 8.0 miles
Clouds Mostly Cloudy 1800 ft
Overcast 9000 ft
Windchill 16 °F
Dew Point 9 °F
Humidity 75%
Rainfall 0.00 in
Snow Depth Not available.
UV 1 out of 12
Pollen .10 out of 12
Air Quality Not available.
Flu Activity Not available.
METAR KJHW 311555Z 20008KT 8SM BKN018 OVC090 M11/M15 A3022 RMK AO1

More Conditions Fewer Conditions

Pressure 30.22 in
Visibility 8.0 miles
Clouds Mostly Cloudy 1800 ft
Overcast 9000 ft
Windchill 16 °F
Dew Point 9 °F
Humidity 75%
Rainfall 0.00 in
Snow Depth Not available.
UV 1 out of 12
Pollen .10 out of 12
Air Quality Not available.
Flu Activity Not available.
METAR KJHW 311555Z 20008KT 8SM BKN018 OVC090 M11/M15 A3022 RMK AO1

More Conditions Fewer Conditions

10-Day Weather Forecast

Almanac

Astronomy

Jan. 31, 2015 Rise Set
Actual Time
Civil Twilight
Nautical Twilight
Astronomical Twilight
Moon
Length of Visible Light
Length of Day
Tomorrow will be .
, % of the Moon is Illuminated

Today's Extremes

State Highs State Lows

Community

WunderPhotos

Upload Photos

1,792,098 photos uploaded!

WunderBlogs® & News

Nearby

Air Quality

  Air Quality AQ Index Pollutant
Not available.

Snow Depth

Station Depth Elevation

Earthquake Activity

City Distance Mag. Time & Date
Minimum magnitude displayed is 2.5.

Coastal Water Temperatures

Place Temperature

Nearby Weather Stations